Time;durP1;ratioP1;P1;durP2;ratioP2;P2;SDS_P1;SDS_P2;PMS_P1;PMS_P2;Temp;Humidity;BMP_temperature;BMP_pressure;BME280_temperature;BME280_humidity;BME280_pressure;Samples;Min_cycle;Max_cycle;Signal;HPM_P1;HPM_P2
2021/12/08 00:01:48;;;;;;;;;3.00;2.00;;;;;6.20;94.02;98743.91;5077624;27;45558;-69
2021/12/08 00:04:13;;;;;;;;;3.75;1.50;;;;;6.24;94.90;98759.31;5077398;27;45427;-68
2021/12/08 00:06:38;;;;;;;;;1.75;1.75;;;;;6.16;94.83;98738.00;5076862;27;45487;-69
2021/12/08 00:09:26;;;;;;;;;3.75;0.00;;;;;6.20;95.06;98756.97;5078298;27;45477;-69
2021/12/08 00:14:35;;;;;;;;;2.00;0.25;;;;;6.14;95.17;98765.94;5076285;28;45651;-69
2021/12/08 00:17:01;;;;;;;;;1.50;0.50;;;;;6.05;95.63;98745.53;5076745;27;45179;-71
2021/12/08 00:19:28;;;;;;;;;3.50;1.25;;;;;6.11;95.46;98753.06;5076720;27;45313;-66
2021/12/08 00:21:54;;;;;;;;;1.25;1.00;;;;;6.08;96.12;98748.00;5076893;27;45362;-67
2021/12/08 00:24:19;;;;;;;;;1.75;1.75;;;;;6.06;96.63;98757.66;5074734;28;47509;-69
2021/12/08 00:26:44;;;;;;;;;3.00;1.50;;;;;6.03;96.28;98750.00;5075280;28;45377;-66
2021/12/08 00:29:10;;;;;;;;;1.00;1.00;;;;;6.01;96.87;98746.63;5076183;27;45421;-68
2021/12/08 00:31:35;;;;;;;;;0.50;0.50;;;;;5.97;95.99;98741.50;5076420;27;45283;-68
2021/12/08 00:34:01;;;;;;;;;2.00;0.25;;;;;5.96;96.86;98750.28;5074842;27;45926;-65
2021/12/08 00:36:38;;;;;;;;;1.75;0.25;;;;;5.92;96.64;98740.91;5076320;27;45517;-65
2021/12/08 00:39:04;;;;;;;;;1.25;1.00;;;;;5.89;97.23;98742.84;5076556;27;45394;-68
2021/12/08 00:41:29;;;;;;;;;2.00;1.00;;;;;5.89;97.35;98756.72;5081356;28;45661;-68
2021/12/08 00:43:54;;;;;;;;;2.25;1.75;;;;;5.86;97.42;98746.44;5083284;27;46313;-69
2021/12/08 00:46:20;;;;;;;;;2.75;1.00;;;;;5.84;96.45;98764.78;5076202;27;45228;-66
2021/12/08 00:48:49;;;;;;;;;3.75;1.00;;;;;5.81;95.84;98766.69;5078453;27;45329;-67
2021/12/08 00:51:15;;;;;;;;;1.00;0.75;;;;;5.79;96.52;98785.03;5080578;27;45523;-69
2021/12/08 00:53:40;;;;;;;;;2.75;1.00;;;;;5.77;95.90;98784.25;5079714;27;46207;-66
2021/12/08 00:56:06;;;;;;;;;0.00;0.00;;;;;5.77;95.39;98789.47;5079330;27;45379;-69
2021/12/08 00:58:31;;;;;;;;;2.25;1.00;;;;;5.76;95.50;98789.56;5079668;27;45422;-68
2021/12/08 01:00:56;;;;;;;;;0.00;0.00;;;;;5.75;94.46;98788.72;5080931;27;45580;-68
2021/12/08 01:03:22;;;;;;;;;1.00;1.00;;;;;5.73;94.92;98787.09;5084728;27;46583;-69
2021/12/08 01:05:53;;;;;;;;;0.00;0.00;;;;;5.66;95.68;98778.72;5082926;27;45489;-60
2021/12/08 01:08:21;;;;;;;;;1.00;0.00;;;;;5.70;95.37;98796.78;5080184;27;45433;-68
2021/12/08 01:10:50;;;;;;;;;3.00;0.75;;;;;5.71;95.29;98795.00;5080233;27;45334;-67
2021/12/08 01:13:16;;;;;;;;;0.50;0.00;;;;;5.69;94.85;98792.47;5079257;27;46165;-65
2021/12/08 01:15:45;;;;;;;;;1.25;0.00;;;;;5.67;95.17;98793.44;5079337;27;45295;-67
2021/12/08 01:18:11;;;;;;;;;0.50;0.00;;;;;5.61;95.00;98785.94;5079696;27;45378;-65
2021/12/08 01:20:36;;;;;;;;;0.00;0.00;;;;;5.63;94.48;98789.31;5080104;27;45579;-68
2021/12/08 01:23:03;;;;;;;;;1.00;1.00;;;;;5.56;94.48;98783.56;5080263;27;46253;-65
2021/12/08 01:25:29;;;;;;;;;0.25;0.00;;;;;5.58;95.08;98794.75;5079006;27;45262;-67
2021/12/08 01:27:54;;;;;;;;;2.00;0.25;;;;;5.56;95.40;98781.78;5079215;27;45230;-65
2021/12/08 01:30:19;;;;;;;;;0.00;0.00;;;;;5.53;94.94;98771.50;5079262;27;45301;-66
2021/12/08 01:32:45;;;;;;;;;0.75;0.00;;;;;5.50;94.59;98756.00;5079932;27;45287;-66
2021/12/08 01:35:11;;;;;;;;;1.00;0.00;;;;;5.48;94.82;98750.00;5079384;27;45312;-68
2021/12/08 01:37:37;;;;;;;;;1.75;0.00;;;;;5.39;94.85;98751.31;5079208;27;45380;-66
2021/12/08 01:40:07;;;;;;;;;2.75;0.00;;;;;5.41;95.12;98752.09;5078819;27;45433;-67
2021/12/08 01:42:41;;;;;;;;;1.00;1.00;;;;;5.41;95.22;98757.31;5078509;27;46532;-68
2021/12/08 01:47:51;;;;;;;;;0.00;0.00;;;;;5.38;94.94;98769.63;5077873;27;45314;-67
2021/12/08 01:50:17;;;;;;;;;0.00;0.00;;;;;5.36;95.20;98781.91;5079006;27;45595;-69
2021/12/08 01:52:42;;;;;;;;;1.00;0.00;;;;;5.29;95.32;98785.72;5078288;27;46299;-67
2021/12/08 01:55:10;;;;;;;;;3.00;0.50;;;;;5.34;94.31;98804.59;5078760;27;45408;-68
2021/12/08 01:57:37;;;;;;;;;3.75;0.25;;;;;5.30;95.64;98805.66;5078776;27;45348;-68
2021/12/08 02:00:07;;;;;;;;;2.75;0.25;;;;;5.24;95.65;98796.34;5079046;27;45675;-67
2021/12/08 02:02:33;;;;;;;;;0.00;0.00;;;;;5.28;95.59;98807.50;5077147;28;46212;-66
2021/12/08 02:04:58;;;;;;;;;0.25;0.00;;;;;5.26;95.90;98824.03;5078127;27;45380;-68
2021/12/08 02:07:23;;;;;;;;;1.00;0.00;;;;;5.25;96.06;98822.34;5078384;27;45389;-67
2021/12/08 02:09:49;;;;;;;;;4.00;0.00;;;;;5.23;95.88;98818.13;5079224;27;45235;-68
2021/12/08 02:12:14;;;;;;;;;1.50;0.00;;;;;5.21;96.15;98815.59;5078490;27;45239;-69
2021/12/08 02:14:40;;;;;;;;;0.00;0.00;;;;;5.21;95.85;98832.97;5078246;27;45242;-66
2021/12/08 02:17:10;;;;;;;;;0.25;0.00;;;;;5.19;96.07;98832.22;5078244;27;45442;-67
2021/12/08 02:19:36;;;;;;;;;0.00;0.00;;;;;5.16;96.35;98835.81;5079250;27;45365;-65
2021/12/08 02:22:01;;;;;;;;;1.50;1.50;;;;;5.14;96.84;98844.59;5078799;27;45322;-66
2021/12/08 02:24:27;;;;;;;;;3.00;0.00;;;;;5.09;96.34;98850.06;5078171;27;45559;-64
2021/12/08 02:26:52;;;;;;;;;2.00;0.00;;;;;5.11;96.63;98861.25;5078774;27;45765;-63
2021/12/08 02:29:30;;;;;;;;;0.00;0.00;;;;;5.09;96.33;98865.69;5078949;27;45429;-66
2021/12/08 02:32:10;;;;;;;;;4.50;0.75;;;;;5.08;96.75;98866.59;5077947;27;45502;-65
2021/12/08 02:48:16;;;;;;;;;2.00;0.25;;;;;4.94;97.09;98852.44;5078175;27;45398;-66
2021/12/08 02:50:43;;;;;;;;;3.00;1.00;;;;;4.94;97.39;98851.56;5077676;27;45500;-68
2021/12/08 02:53:14;;;;;;;;;2.00;0.00;;;;;4.92;97.45;98853.41;5077291;27;45287;-65
2021/12/08 02:55:41;;;;;;;;;2.75;0.00;;;;;4.91;97.80;98854.31;5076515;27;45223;-68
2021/12/08 02:58:07;;;;;;;;;2.00;0.00;;;;;4.89;97.70;98856.16;5077393;27;45335;-67
2021/12/08 03:00:37;;;;;;;;;1.00;1.00;;;;;4.63;97.26;98822.50;5078256;27;45407;-67
2021/12/08 03:03:04;;;;;;;;;0.75;0.75;;;;;4.87;97.30;98858.84;5077813;27;46596;-67
2021/12/08 03:05:30;;;;;;;;;0.00;0.00;;;;;4.86;97.18;98849.31;5083521;27;45220;-67
2021/12/08 03:07:57;;;;;;;;;0.00;0.00;;;;;4.85;96.78;98854.59;5087285;27;45133;-68
2021/12/08 03:10:28;;;;;;;;;3.25;0.75;;;;;4.85;97.01;98845.03;5077732;28;45540;-66
2021/12/08 03:12:53;;;;;;;;;1.00;1.00;;;;;4.84;96.77;98832.91;5077303;27;45394;-68
2021/12/08 03:15:19;;;;;;;;;2.75;0.00;;;;;4.85;96.42;98837.22;5077200;27;45291;-64
2021/12/08 03:17:44;;;;;;;;;0.75;0.00;;;;;4.83;96.92;98841.66;5077314;27;45276;-64
2021/12/08 03:20:15;;;;;;;;;1.00;1.00;;;;;4.76;97.32;98817.63;5077196;27;45298;-66
2021/12/08 03:22:45;;;;;;;;;0.25;0.25;;;;;4.80;96.85;98820.94;5076790;27;47212;-65
2021/12/08 03:25:14;;;;;;;;;0.00;0.00;;;;;4.81;96.83;98826.06;5077207;27;45372;-63
2021/12/08 03:27:48;;;;;;;;;2.00;0.00;;;;;4.80;96.74;98818.34;5075716;27;45493;-66
2021/12/08 03:30:19;;;;;;;;;5.00;0.00;;;;;4.78;96.43;98813.19;5076958;27;45488;-68
2021/12/08 03:32:44;;;;;;;;;0.00;0.00;;;;;4.77;96.41;98818.44;5076566;27;47020;-66
2021/12/08 03:35:14;;;;;;;;;0.00;0.00;;;;;4.78;96.67;98818.41;5077886;27;45232;-64
2021/12/08 03:37:43;;;;;;;;;1.25;1.25;;;;;4.75;96.39;98805.50;5077543;27;45417;-69
2021/12/08 03:40:13;;;;;;;;;0.75;0.75;;;;;4.75;96.27;98810.72;5092953;27;45391;-67
2021/12/08 03:42:39;;;;;;;;;2.00;1.00;;;;;4.75;96.48;98807.25;5076649;27;46272;-69
2021/12/08 03:45:10;;;;;;;;;0.00;0.00;;;;;4.72;96.42;98805.66;5077182;27;45365;-67
2021/12/08 03:47:40;;;;;;;;;2.00;0.00;;;;;4.72;96.87;98817.81;5077594;27;45330;-68
2021/12/08 03:50:07;;;;;;;;;2.25;1.00;;;;;4.71;97.17;98816.97;5077920;28;45559;-67
2021/12/08 03:52:33;;;;;;;;;0.50;0.50;;;;;4.70;96.95;98804.00;5077282;27;45420;-68
2021/12/08 03:54:59;;;;;;;;;1.75;0.00;;;;;4.68;96.88;98814.50;5076530;28;45723;-67
2021/12/08 03:57:24;;;;;;;;;0.00;0.00;;;;;4.68;97.62;98810.13;5077782;27;45380;-67
2021/12/08 03:59:51;;;;;;;;;0.00;0.00;;;;;4.65;96.99;98818.06;5077712;27;45611;-67
2021/12/08 04:02:17;;;;;;;;;1.50;0.25;;;;;4.66;97.44;98813.72;5077396;27;46133;-69
2021/12/08 04:04:46;;;;;;;;;0.25;0.25;;;;;4.61;97.17;98815.69;5077328;27;45263;-69
2021/12/08 04:07:14;;;;;;;;;3.00;1.00;;;;;4.62;97.21;98812.19;5079148;27;45885;-68
2021/12/08 04:09:41;;;;;;;;;3.25;0.00;;;;;4.62;97.46;98804.38;5078864;27;45242;-68
2021/12/08 04:12:09;;;;;;;;;0.00;0.00;;;;;4.61;97.45;98805.28;5079544;27;45340;-70
2021/12/08 04:14:40;;;;;;;;;0.75;0.00;;;;;4.60;97.69;98806.19;5078185;27;45334;-69
2021/12/08 04:17:22;;;;;;;;;0.75;0.25;;;;;4.58;97.80;98805.41;5077992;27;45462;-65
2021/12/08 04:19:49;;;;;;;;;2.00;1.00;;;;;4.58;97.64;98813.22;5076735;27;45580;-63
2021/12/08 04:22:37;;;;;;;;;1.00;0.75;;;;;4.58;97.89;98811.44;5079029;27;47609;-63
2021/12/08 04:25:08;;;;;;;;;2.00;0.50;;;;;4.56;98.25;98815.88;5078971;28;45328;-68
2021/12/08 04:27:36;;;;;;;;;1.00;1.00;;;;;4.53;97.33;98805.59;5076062;28;45340;-69
2021/12/08 04:30:06;;;;;;;;;0.75;0.75;;;;;4.50;98.32;98801.38;5078061;27;45589;-67
2021/12/08 04:32:33;;;;;;;;;2.00;0.00;;;;;4.41;97.92;98796.59;5081161;27;45477;-65
2021/12/08 04:35:00;;;;;;;;;1.75;0.00;;;;;4.48;98.32;98812.78;5079435;27;45394;-62
2021/12/08 04:37:33;;;;;;;;;2.25;0.00;;;;;4.53;98.80;98829.03;5076914;27;45405;-66
2021/12/08 04:43:07;;;;;;;;;3.00;1.00;;;;;4.54;98.26;98815.09;5075655;27;45418;-62
2021/12/08 04:45:51;;;;;;;;;3.25;1.00;;;;;4.61;98.33;98816.53;5076024;27;45338;-63
2021/12/08 05:04:41;;;;;;;;;1.00;0.50;;;;;4.65;98.28;98851.09;5075815;27;45339;-67
2021/12/08 05:10:03;;;;;;;;;1.00;1.00;;;;;4.73;98.31;98849.00;5076075;27;45354;-68
2021/12/08 05:12:32;;;;;;;;;2.00;1.00;;;;;4.75;97.94;98855.00;5076162;27;45369;-68
2021/12/08 05:15:12;;;;;;;;;1.50;1.50;;;;;4.75;97.72;98844.56;5075539;27;46467;-67
2021/12/08 05:17:48;;;;;;;;;1.25;0.00;;;;;4.75;97.71;98854.13;5075473;28;45405;-63
2021/12/08 05:20:26;;;;;;;;;2.75;1.00;;;;;4.72;97.78;98846.47;5075823;27;45288;-65
2021/12/08 05:22:56;;;;;;;;;1.50;1.50;;;;;4.68;98.04;98851.81;5076199;27;45381;-68
2021/12/08 05:25:27;;;;;;;;;4.00;3.50;;;;;4.72;98.53;98859.47;5076771;27;45354;-66
2021/12/08 05:27:56;;;;;;;;;2.00;0.50;;;;;4.68;98.17;98854.41;5077132;27;45302;-70
2021/12/08 05:30:36;;;;;;;;;2.00;1.50;;;;;4.63;98.04;98850.31;5078084;27;45415;-67
2021/12/08 05:33:04;;;;;;;;;5.25;2.00;;;;;4.47;97.64;98840.56;5078462;27;45323;-68
2021/12/08 05:35:29;;;;;;;;;3.25;1.25;;;;;4.57;97.81;98864.44;5076849;27;46268;-66
2021/12/08 05:37:55;;;;;;;;;3.00;2.00;;;;;4.54;98.12;98877.59;5078641;27;45437;-68
2021/12/08 05:40:26;;;;;;;;;0.00;0.00;;;;;4.50;98.11;98873.44;5078562;27;45425;-69
2021/12/08 05:42:52;;;;;;;;;1.75;1.00;;;;;4.42;98.17;98867.72;5078964;27;45379;-68
2021/12/08 05:45:20;;;;;;;;;6.25;6.25;;;;;4.43;98.70;98880.69;5078303;27;45513;-68
2021/12/08 05:47:47;;;;;;;;;4.00;1.25;;;;;4.41;98.69;98886.84;5078423;27;45420;-66
2021/12/08 05:50:19;;;;;;;;;1.00;1.00;;;;;4.36;98.58;98879.25;5079043;27;45472;-65
2021/12/08 05:52:47;;;;;;;;;3.00;1.25;;;;;4.33;99.60;98872.41;5078896;28;45412;-68
2021/12/08 05:55:13;;;;;;;;;3.75;2.00;;;;;4.32;99.17;98869.88;5076960;27;46194;-66
2021/12/08 05:57:42;;;;;;;;;2.00;2.00;;;;;4.30;99.03;98863.88;5078313;27;45294;-68
2021/12/08 06:00:13;;;;;;;;;3.00;1.25;;;;;4.26;99.02;98855.34;5078511;27;45315;-64
2021/12/08 06:02:40;;;;;;;;;5.50;1.75;;;;;4.23;98.81;98851.09;5078176;27;45342;-68
2021/12/08 06:05:07;;;;;;;;;2.25;2.25;;;;;4.23;98.36;98860.69;5077824;27;46172;-69
2021/12/08 06:07:33;;;;;;;;;3.25;0.00;;;;;4.22;97.93;98864.19;5078308;27;45815;-60
2021/12/08 06:10:06;;;;;;;;;2.50;1.25;;;;;4.19;98.56;98844.31;5078412;27;45377;-69
2021/12/08 06:12:31;;;;;;;;;3.50;2.00;;;;;4.20;97.53;98840.00;5078780;27;45207;-68
2021/12/08 06:14:57;;;;;;;;;0.00;0.00;;;;;4.18;98.34;98842.63;5077903;27;45234;-65
2021/12/08 06:17:28;;;;;;;;;2.25;1.00;;;;;4.19;98.04;98851.31;5079553;27;45234;-66
2021/12/08 06:19:54;;;;;;;;;0.50;0.50;;;;;4.18;98.08;98847.00;5083344;27;45322;-67
2021/12/08 06:22:23;;;;;;;;;1.00;1.00;;;;;4.17;98.50;98846.16;5078153;27;45248;-67
2021/12/08 06:24:49;;;;;;;;;4.25;1.00;;;;;4.14;99.03;98853.25;5077751;27;45268;-67
2021/12/08 06:27:15;;;;;;;;;2.00;2.00;;;;;4.05;98.70;98838.84;5077434;27;45487;-69
2021/12/08 06:29:43;;;;;;;;;4.00;2.75;;;;;4.11;98.83;98858.59;5077464;27;45491;-67
2021/12/08 06:32:11;;;;;;;;;2.00;1.50;;;;;4.08;99.15;98870.81;5077822;27;45536;-66
2021/12/08 06:34:39;;;;;;;;;3.25;1.00;;;;;4.06;98.46;98874.38;5077543;28;45397;-66
2021/12/08 06:37:20;;;;;;;;;1.00;1.00;;;;;4.07;99.16;98878.66;5078079;27;45436;-64
2021/12/08 06:39:51;;;;;;;;;2.50;0.75;;;;;4.05;98.96;98890.91;5079303;27;45274;-67
2021/12/08 06:42:26;;;;;;;;;4.00;1.00;;;;;4.04;99.04;98897.88;5083089;27;45359;-68
2021/12/08 06:44:53;;;;;;;;;5.00;2.75;;;;;4.04;98.68;98892.66;5079473;27;45387;-65
2021/12/08 06:47:21;;;;;;;;;2.00;2.00;;;;;4.04;99.37;98897.00;5077011;28;45422;-67
2021/12/08 06:49:51;;;;;;;;;3.25;1.50;;;;;4.02;98.91;98898.81;5077720;27;45284;-66
2021/12/08 06:52:23;;;;;;;;;6.50;5.25;;;;;3.98;99.37;98889.44;5077638;28;45398;-66
2021/12/08 06:54:55;;;;;;;;;2.00;2.00;;;;;3.98;99.72;98889.44;5075713;28;45630;-65
2021/12/08 06:57:25;;;;;;;;;3.25;1.75;;;;;3.95;99.06;98893.03;5077579;28;45393;-68
2021/12/08 06:59:57;;;;;;;;;2.00;0.50;;;;;3.95;99.97;98874.81;5078730;27;45361;-67
2021/12/08 07:02:52;;;;;;;;;4.50;2.00;;;;;3.94;99.40;98886.16;5079827;27;45405;-66
2021/12/08 07:05:28;;;;;;;;;3.00;2.00;;;;;3.92;99.15;98878.38;5078765;27;45378;-68
2021/12/08 07:07:58;;;;;;;;;1.50;1.00;;;;;3.94;99.48;98891.34;5079186;27;45205;-65
2021/12/08 07:10:32;;;;;;;;;2.50;1.25;;;;;3.93;99.73;98874.88;5078349;27;45422;-65
2021/12/08 07:13:03;;;;;;;;;5.50;2.00;;;;;3.95;99.33;98885.22;5077927;27;45536;-65
2021/12/08 07:16:02;;;;;;;;;4.00;1.00;;;;;3.98;99.71;98866.03;5078929;27;46677;-63
2021/12/08 07:18:40;;;;;;;;;5.25;1.25;;;;;3.96;99.59;98868.72;5078878;27;45434;-66
2021/12/08 07:21:11;;;;;;;;;2.75;2.75;;;;;3.94;100.00;98866.16;5076102;28;45409;-67
2021/12/08 07:23:43;;;;;;;;;4.00;2.00;;;;;3.97;100.00;98875.63;5077284;28;45434;-66
2021/12/08 07:26:15;;;;;;;;;2.75;1.00;;;;;3.96;99.94;98889.53;5077036;28;45379;-64
2021/12/08 07:28:42;;;;;;;;;3.75;0.00;;;;;3.98;100.00;98902.47;5076676;27;45231;-67
2021/12/08 07:31:20;;;;;;;;;1.00;1.00;;;;;3.97;100.00;98887.75;5076593;27;45234;-65
2021/12/08 07:33:46;;;;;;;;;3.25;1.00;;;;;3.98;100.00;98877.31;5077122;27;45459;-62
2021/12/08 07:36:16;;;;;;;;;3.00;1.00;;;;;3.99;99.84;98878.13;5077715;27;46179;-63
2021/12/08 07:38:45;;;;;;;;;1.00;1.00;;;;;3.99;99.78;98873.78;5077249;28;45363;-65
2021/12/08 07:41:34;;;;;;;;;5.00;2.00;;;;;3.92;100.00;98865.38;5078628;27;45285;-63
2021/12/08 07:44:05;;;;;;;;;5.00;1.00;;;;;4.00;100.00;98890.25;5078516;27;45505;-62
2021/12/08 07:46:34;;;;;;;;;4.00;2.50;;;;;4.00;100.00;98890.25;5077249;27;46051;-63
2021/12/08 07:49:07;;;;;;;;;3.00;2.00;;;;;3.99;99.43;98884.19;5077394;28;45208;-63
2021/12/08 07:51:47;;;;;;;;;3.50;1.25;;;;;4.04;99.91;98912.63;5078479;28;45910;-63
2021/12/08 07:54:14;;;;;;;;;3.00;2.00;;;;;4.08;100.00;98916.78;5080411;27;45604;-65
2021/12/08 07:56:43;;;;;;;;;3.50;2.00;;;;;4.08;99.82;98925.47;5077581;27;45963;-64
2021/12/08 07:59:11;;;;;;;;;2.00;2.00;;;;;4.06;99.98;98905.59;5075988;27;45531;-63
2021/12/08 08:01:42;;;;;;;;;3.00;1.50;;;;;4.20;99.61;98933.69;5075323;27;45378;-64
2021/12/08 08:04:11;;;;;;;;;5.00;1.00;;;;;4.24;99.49;98923.09;5078054;27;45551;-64
2021/12/08 08:06:41;;;;;;;;;3.00;1.00;;;;;4.29;99.02;98935.06;5077740;28;46290;-64
2021/12/08 08:09:12;;;;;;;;;2.25;1.00;;;;;4.36;99.04;98937.34;5078921;27;45478;-64
2021/12/08 08:11:42;;;;;;;;;3.00;3.00;;;;;4.40;98.96;98935.47;5076163;27;45303;-63
2021/12/08 08:14:10;;;;;;;;;9.25;4.00;;;;;4.40;98.87;98925.06;5075283;27;45424;-63
2021/12/08 08:16:38;;;;;;;;;5.00;2.00;;;;;4.41;98.89;98929.38;5075363;27;45468;-63
2021/12/08 08:19:11;;;;;;;;;3.25;3.00;;;;;4.42;98.55;98933.66;5074541;27;45672;-64
2021/12/08 08:21:42;;;;;;;;;3.75;2.50;;;;;4.42;98.38;98928.44;5075412;27;45414;-64
2021/12/08 08:24:07;;;;;;;;;4.00;2.75;;;;;4.37;98.86;98909.56;5076167;27;45367;-64
2021/12/08 08:26:36;;;;;;;;;3.00;1.75;;;;;4.42;98.30;98927.59;5075341;27;45485;-65
2021/12/08 08:29:03;;;;;;;;;4.75;2.25;;;;;4.44;97.88;98930.97;5075519;27;45248;-67
2021/12/08 08:31:53;;;;;;;;;3.25;2.00;;;;;4.42;98.40;98925.00;5076363;27;45587;-61
2021/12/08 08:34:18;;;;;;;;;4.25;3.25;;;;;4.47;98.57;98956.88;5074940;27;45654;-62
2021/12/08 08:36:46;;;;;;;;;2.00;2.00;;;;;4.49;98.37;98955.94;5074364;27;45473;-60
2021/12/08 08:39:15;;;;;;;;;7.00;4.00;;;;;4.51;98.63;98959.31;5074135;27;45385;-63
2021/12/08 08:41:59;;;;;;;;;4.00;3.00;;;;;4.53;98.35;98962.69;5075718;27;45423;-59
2021/12/08 08:44:36;;;;;;;;;4.50;3.00;;;;;4.58;98.39;98961.66;5076241;27;45699;-61
2021/12/08 08:47:33;;;;;;;;;3.25;1.50;;;;;4.64;98.17;98956.19;5075700;27;45906;-63
2021/12/08 08:49:59;;;;;;;;;3.00;3.00;;;;;4.64;98.01;98964.00;5073931;28;45211;-60
2021/12/08 08:52:31;;;;;;;;;4.50;2.00;;;;;4.69;98.09;98962.06;5080652;27;45515;-63
2021/12/08 08:55:00;;;;;;;;;5.75;2.50;;;;;4.66;97.91;98960.41;5078120;27;45381;-65
2021/12/08 08:57:34;;;;;;;;;8.00;2.00;;;;;4.72;98.04;98966.28;5077053;27;45337;-62
2021/12/08 09:00:13;;;;;;;;;9.75;2.00;;;;;4.71;96.72;98960.25;5076413;28;45208;-61
2021/12/08 09:02:39;;;;;;;;;6.00;1.00;;;;;4.67;96.82;98948.25;5077109;27;45345;-62
2021/12/08 09:05:25;;;;;;;;;6.25;3.00;;;;;4.72;97.03;98948.03;5071661;27;45420;-59
2021/12/08 09:07:55;;;;;;;;;3.25;2.00;;;;;4.73;96.61;98961.03;5054042;28;47273;-61
2021/12/08 09:10:27;;;;;;;;;3.25;2.00;;;;;4.75;96.78;98953.13;5055996;28;45512;-65
2021/12/08 09:13:26;;;;;;;;;1.75;1.75;;;;;4.76;96.31;98955.69;5057092;28;45474;-64
2021/12/08 09:15:56;;;;;;;;;4.00;2.25;;;;;4.79;96.41;98968.56;5060199;28;45278;-65
2021/12/08 09:18:52;;;;;;;;;4.25;0.50;;;;;4.82;96.41;98973.66;5059127;28;46170;-63
2021/12/08 09:21:55;;;;;;;;;12.25;3.25;;;;;4.86;96.09;98981.34;5060493;28;45455;-64
2021/12/08 09:24:37;;;;;;;;;2.50;2.00;;;;;4.90;96.18;98990.72;5058699;27;45427;-62
2021/12/08 09:27:06;;;;;;;;;3.00;2.00;;;;;4.91;95.67;98990.66;5060719;28;45449;-64
2021/12/08 09:29:44;;;;;;;;;4.00;3.00;;;;;4.96;95.29;98993.06;5073722;28;45975;-64
2021/12/08 09:32:17;;;;;;;;;6.25;2.50;;;;;4.95;95.45;98993.97;5058481;28;45240;-66
2021/12/08 09:34:54;;;;;;;;;5.00;1.00;;;;;4.97;94.84;98997.38;5059090;28;45564;-63
2021/12/08 09:37:25;;;;;;;;;6.50;3.75;;;;;4.97;95.22;98997.38;5056636;28;45552;-65
2021/12/08 09:40:01;;;;;;;;;3.50;3.50;;;;;4.91;95.60;98984.59;5066883;27;46245;-63
2021/12/08 09:42:31;;;;;;;;;3.50;2.50;;;;;5.03;95.12;99006.69;5077543;27;45444;-65
2021/12/08 09:45:05;;;;;;;;;2.75;2.00;;;;;5.04;95.41;99014.44;5077878;27;45321;-64
2021/12/08 09:47:31;;;;;;;;;3.00;1.00;;;;;5.01;94.57;99013.72;5077355;27;45318;-65
2021/12/08 09:50:04;;;;;;;;;4.00;2.00;;;;;5.15;95.35;99015.72;5077670;27;46190;-63
2021/12/08 09:52:30;;;;;;;;;2.50;1.00;;;;;5.18;94.73;99008.63;5077424;27;45458;-65
2021/12/08 09:55:00;;;;;;;;;3.25;2.75;;;;;5.33;95.28;99019.31;5077584;27;45385;-66
2021/12/08 09:57:27;;;;;;;;;3.00;2.00;;;;;5.43;92.87;99009.34;5080441;27;45515;-64
2021/12/08 09:59:53;;;;;;;;;5.00;3.00;;;;;5.47;93.86;99001.28;5113706;27;46304;-66
2021/12/08 10:02:40;;;;;;;;;3.75;0.75;;;;;5.55;93.41;99004.41;5097407;27;45597;-66
2021/12/08 10:05:11;;;;;;;;;2.00;2.00;;;;;5.58;93.34;98993.00;5098084;27;45433;-65
2021/12/08 10:07:37;;;;;;;;;6.75;2.25;;;;;5.59;93.93;98988.63;5077673;27;45324;-63
2021/12/08 10:10:04;;;;;;;;;5.50;2.50;;;;;5.60;93.16;98987.69;5077186;27;45504;-65
2021/12/08 10:12:33;;;;;;;;;3.00;2.00;;;;;5.65;93.74;98989.19;5075566;27;45642;-64
2021/12/08 10:14:58;;;;;;;;;4.00;4.00;;;;;5.66;91.88;98985.66;5075705;27;45650;-65
2021/12/08 10:17:24;;;;;;;;;3.00;1.75;;;;;5.68;92.63;98978.63;5076125;27;45548;-64
2021/12/08 10:20:31;;;;;;;;;5.00;4.00;;;;;5.70;92.45;98970.72;5077327;28;45499;-62
2021/12/08 10:23:20;;;;;;;;;6.25;4.00;;;;;5.73;92.78;98954.09;5076813;27;45465;-62
2021/12/08 10:25:57;;;;;;;;;5.75;5.00;;;;;5.76;92.27;98964.38;5077374;27;45394;-63
2021/12/08 10:28:28;;;;;;;;;3.00;2.00;;;;;5.77;92.92;98972.13;5077969;27;45519;-61
2021/12/08 10:31:04;;;;;;;;;3.25;2.00;;;;;5.81;91.42;98972.84;5077306;27;46235;-64
2021/12/08 10:34:01;;;;;;;;;6.00;4.75;;;;;5.79;91.70;98972.06;5078751;27;45445;-62
2021/12/08 10:39:13;;;;;;;;;4.50;3.50;;;;;5.80;91.80;98968.53;5077592;27;45298;-65
2021/12/08 10:41:53;;;;;;;;;6.75;3.00;;;;;5.80;91.21;98976.34;5078380;27;45464;-64
2021/12/08 10:44:26;;;;;;;;;8.00;5.00;;;;;5.84;90.61;98972.69;5077504;27;45451;-65
2021/12/08 10:46:57;;;;;;;;;6.00;4.00;;;;;5.87;91.18;98969.09;5092858;27;45477;-64
2021/12/08 10:54:36;;;;;;;;;5.25;4.25;;;;;6.02;89.41;98968.41;5078567;28;45460;-64
2021/12/08 10:57:19;;;;;;;;;6.50;6.50;;;;;6.05;90.10;98965.66;5077094;28;45471;-62
2021/12/08 10:59:54;;;;;;;;;5.75;3.75;;;;;6.18;90.64;98965.06;5078611;27;45315;-64
2021/12/08 11:02:56;;;;;;;;;7.00;4.00;;;;;6.20;90.08;98958.84;5078568;27;46116;-64
2021/12/08 11:05:24;;;;;;;;;12.25;9.00;;;;;6.29;89.69;98973.22;5077623;27;45458;-61
2021/12/08 11:08:05;;;;;;;;;8.50;5.50;;;;;6.36;89.10;98979.84;5079253;27;45681;-62
2021/12/08 11:10:32;;;;;;;;;7.25;6.50;;;;;6.41;89.03;98975.25;5082436;27;45427;-64
2021/12/08 11:12:59;;;;;;;;;11.50;10.00;;;;;6.41;89.08;98969.19;5096521;27;47267;-63
2021/12/08 11:15:27;;;;;;;;;6.50;6.25;;;;;6.53;89.14;98970.34;5079275;27;45278;-62
2021/12/08 11:18:14;;;;;;;;;8.00;4.00;;;;;6.61;88.14;98976.03;5075881;28;45536;-62
2021/12/08 11:20:48;;;;;;;;;27.75;21.25;;;;;6.61;88.42;98967.34;5077607;28;45263;-63
2021/12/08 11:23:17;;;;;;;;;27.75;24.00;;;;;6.66;87.75;98975.81;5093059;27;47184;-65
2021/12/08 11:25:47;;;;;;;;;10.25;4.50;;;;;6.71;87.82;98965.97;5079054;27;45301;-60
2021/12/08 11:28:20;;;;;;;;;5.00;4.00;;;;;6.66;86.88;98958.34;5078672;27;45344;-67
2021/12/08 11:30:47;;;;;;;;;8.00;4.25;;;;;6.83;86.02;98977.56;5094538;27;45553;-66
2021/12/08 11:33:19;;;;;;;;;10.00;8.75;;;;;6.76;85.68;98963.97;5076998;27;45473;-66
2021/12/08 11:35:45;;;;;;;;;15.00;12.50;;;;;6.84;85.94;98967.03;5078567;27;45467;-64
2021/12/08 11:38:11;;;;;;;;;17.25;14.75;;;;;6.88;84.51;98970.31;5077799;27;45344;-64
2021/12/08 11:40:37;;;;;;;;;9.00;6.00;;;;;6.91;85.69;98978.03;5076766;27;45407;-68
2021/12/08 11:43:03;;;;;;;;;8.00;5.00;;;;;6.85;85.76;98960.88;5073329;27;45380;-64
2021/12/08 11:45:39;;;;;;;;;10.75;9.00;;;;;7.01;85.55;98975.78;5078909;27;45389;-61
2021/12/08 11:48:19;;;;;;;;;10.25;6.50;;;;;7.08;86.10;98978.94;5076219;27;44923;-63
2021/12/08 11:50:45;;;;;;;;;11.75;6.00;;;;;7.13;85.90;98983.00;5076272;28;45512;-63
2021/12/08 11:53:11;;;;;;;;;5.75;4.00;;;;;7.20;85.12;98980.06;5075788;27;45926;-62
2021/12/08 11:55:36;;;;;;;;;5.00;5.00;;;;;7.23;84.72;98975.53;5076385;27;45493;-65
2021/12/08 11:58:02;;;;;;;;;11.75;6.50;;;;;7.25;84.51;98971.06;5094284;27;45347;-64
2021/12/08 12:00:37;;;;;;;;;5.00;4.75;;;;;7.26;83.77;98977.13;5075251;27;45373;-65
2021/12/08 12:03:10;;;;;;;;;6.00;3.75;;;;;7.26;83.33;98984.97;5075278;27;46807;-64
2021/12/08 12:05:41;;;;;;;;;8.00;5.50;;;;;7.25;84.12;98989.38;5075152;27;45482;-61
2021/12/08 12:08:09;;;;;;;;;4.00;2.75;;;;;7.55;84.51;98985.22;5074662;27;45224;-62
2021/12/08 12:10:38;;;;;;;;;4.00;3.00;;;;;7.72;83.73;98987.78;5074929;27;45641;-62
2021/12/08 12:13:08;;;;;;;;;5.50;4.00;;;;;7.75;82.61;98990.25;5088821;27;46207;-63
2021/12/08 12:15:34;;;;;;;;;6.50;6.00;;;;;7.69;82.43;98990.56;5073482;27;45398;-62
2021/12/08 12:18:06;;;;;;;;;6.00;4.50;;;;;7.62;81.58;98988.34;5074849;28;45479;-68
2021/12/08 12:20:39;;;;;;;;;7.00;5.75;;;;;7.62;81.51;98983.13;5091274;27;45291;-64
2021/12/08 12:23:20;;;;;;;;;6.00;5.50;;;;;7.64;82.04;98996.97;5072317;28;45682;-62
2021/12/08 12:26:01;;;;;;;;;6.00;5.50;;;;;7.63;82.00;98987.41;5074617;27;45552;-64
2021/12/08 12:29:07;;;;;;;;;14.00;10.25;;;;;7.69;83.33;98985.34;5091362;27;45453;-64
2021/12/08 12:31:45;;;;;;;;;5.00;4.00;;;;;7.78;83.25;98986.59;5091038;27;45466;-61
2021/12/08 12:34:27;;;;;;;;;4.00;3.25;;;;;7.86;83.68;99010.56;5075158;27;46196;-62
2021/12/08 12:36:54;;;;;;;;;6.75;5.25;;;;;7.92;83.17;99006.78;5074783;27;45366;-65
2021/12/08 12:39:23;;;;;;;;;6.50;6.25;;;;;8.02;82.75;99015.84;5078501;27;45511;-63
2021/12/08 12:42:17;;;;;;;;;4.00;4.00;;;;;8.16;82.31;99024.72;5077722;27;45326;-64
2021/12/08 12:45:06;;;;;;;;;9.50;4.00;;;;;8.26;82.16;99030.28;5074073;27;46358;-63
2021/12/08 12:47:32;;;;;;;;;7.00;7.00;;;;;8.31;81.40;99025.63;5074767;27;45447;-63
2021/12/08 12:50:00;;;;;;;;;5.00;4.25;;;;;8.37;81.75;99033.16;5073329;27;45303;-65